createdAt,value
2023-03-06T00:01:11.033Z,3.40
2023-03-06T00:03:40.518Z,3.50
2023-03-06T00:06:08.229Z,3.40
2023-03-06T00:08:35.530Z,3.50
2023-03-06T00:11:04.781Z,3.50
2023-03-06T00:13:36.322Z,3.40
2023-03-06T00:16:10.631Z,3.30
2023-03-06T00:18:43.978Z,3.30
2023-03-06T00:21:13.807Z,3.30
2023-03-06T00:24:00.188Z,3.30
2023-03-06T00:26:52.775Z,3.40
2023-03-06T00:29:21.237Z,3.40
2023-03-06T00:31:50.131Z,3.40
2023-03-06T00:34:22.095Z,3.40
2023-03-06T00:36:52.064Z,3.30
2023-03-06T00:42:16.456Z,3.30
2023-03-06T00:45:10.332Z,3.30
2023-03-06T00:47:52.934Z,3.30
2023-03-06T01:11:11.512Z,3.30
2023-03-06T01:14:36.525Z,3.30
2023-03-06T01:32:55.308Z,3.20
2023-03-06T01:35:22.823Z,3.20
2023-03-06T01:37:53.165Z,3.20
2023-03-06T01:40:22.902Z,3.20
2023-03-06T01:42:52.037Z,3.30
2023-03-06T02:09:08.762Z,3.20
2023-03-06T02:18:31.466Z,3.10
2023-03-06T02:21:51.783Z,3.10
2023-03-06T02:29:37.981Z,2.90
2023-03-06T04:14:20.074Z,2.70
2023-03-06T04:16:54.501Z,2.80
2023-03-06T04:23:18.688Z,2.70
2023-03-06T04:38:11.301Z,2.80
2023-03-06T04:40:45.070Z,2.80
2023-03-06T04:43:16.074Z,2.80
2023-03-06T04:45:45.265Z,2.80
2023-03-06T04:48:16.922Z,2.80
2023-03-06T04:50:47.352Z,2.80
2023-03-06T04:53:17.205Z,2.80
2023-03-06T04:55:45.482Z,2.80
2023-03-06T04:58:14.151Z,2.80
2023-03-06T05:00:41.313Z,2.80
2023-03-06T05:03:09.045Z,2.80
2023-03-06T05:05:35.868Z,2.80
2023-03-06T05:08:07.064Z,2.80
2023-03-06T05:10:34.061Z,2.80
2023-03-06T05:13:01.614Z,2.80
2023-03-06T05:15:28.835Z,2.80
2023-03-06T05:18:50.589Z,2.80
2023-03-06T05:21:18.840Z,2.80
2023-03-06T05:23:45.928Z,2.80
2023-03-06T05:26:13.925Z,2.80
2023-03-06T05:28:42.769Z,2.70
2023-03-06T05:31:09.775Z,2.70
2023-03-06T05:33:36.926Z,2.80
2023-03-06T05:36:04.910Z,2.80
2023-03-06T05:38:32.271Z,2.80
2023-03-06T05:41:02.142Z,2.80
2023-03-06T05:43:29.197Z,2.80
2023-03-06T05:46:02.757Z,2.80
2023-03-06T05:48:29.809Z,2.70
2023-03-06T05:50:57.869Z,2.80
2023-03-06T05:53:27.432Z,2.80
2023-03-06T05:56:09.809Z,2.70
2023-03-06T05:58:42.863Z,2.70
2023-03-06T06:01:26.650Z,2.70
2023-03-06T06:03:56.636Z,2.60
2023-03-06T06:06:24.031Z,2.60
2023-03-06T06:08:53.045Z,2.70
2023-03-06T06:11:22.861Z,2.70
2023-03-06T06:13:51.814Z,2.70
2023-03-06T06:16:19.464Z,2.70
2023-03-06T06:18:51.910Z,2.70
2023-03-06T06:21:19.769Z,2.60
2023-03-06T06:23:47.628Z,2.60
2023-03-06T06:26:15.138Z,2.60
2023-03-06T06:28:42.020Z,2.60
2023-03-06T06:31:11.089Z,2.60
2023-03-06T06:33:40.109Z,2.60
2023-03-06T06:36:29.859Z,2.60
2023-03-06T06:38:57.924Z,2.60
2023-03-06T06:44:15.771Z,2.50
2023-03-06T06:49:42.896Z,2.50
2023-03-06T12:16:42.297Z,4.00
2023-03-06T12:19:30.773Z,4.10
2023-03-06T12:22:21.013Z,4.10
2023-03-06T12:24:59.004Z,4.10
2023-03-06T12:27:44.472Z,4.20
2023-03-06T12:30:41.841Z,4.40
2023-03-06T12:33:11.706Z,4.40
2023-03-06T12:36:01.758Z,4.40
2023-03-06T12:38:46.190Z,4.40
2023-03-06T12:41:57.790Z,4.40
2023-03-06T12:44:30.380Z,4.40
2023-03-06T12:47:07.278Z,4.40
2023-03-06T12:49:38.719Z,4.40
2023-03-06T13:04:53.073Z,4.60
2023-03-06T13:07:39.140Z,4.50
2023-03-06T13:10:53.368Z,4.60
2023-03-06T13:13:31.188Z,4.50
2023-03-06T13:16:11.830Z,4.50
2023-03-06T13:18:40.023Z,4.40
2023-03-06T13:29:52.760Z,4.20
2023-03-06T13:32:35.895Z,4.30
2023-03-06T13:35:27.098Z,4.30
2023-03-06T13:37:54.819Z,4.20
2023-03-06T13:40:36.996Z,4.20
2023-03-06T13:43:07.084Z,4.20
2023-03-06T13:45:48.187Z,4.20
2023-03-06T13:48:43.183Z,4.30
2023-03-06T13:51:16.424Z,4.30
2023-03-06T13:54:01.958Z,4.20
2023-03-06T13:57:06.803Z,4.10
2023-03-06T14:00:08.255Z,4.10
2023-03-06T14:02:55.134Z,4.10
2023-03-06T14:05:23.072Z,4.10
2023-03-06T14:08:06.080Z,4.20
2023-03-06T14:10:35.110Z,4.10
2023-03-06T14:13:04.633Z,4.00
2023-03-06T14:15:37.163Z,3.90
2023-03-06T14:18:06.823Z,3.90
2023-03-06T14:20:45.202Z,3.90
2023-03-06T14:23:22.702Z,3.90
2023-03-06T14:26:05.415Z,3.90
2023-03-06T14:28:33.488Z,4.00
2023-03-06T14:31:02.490Z,4.00
2023-03-06T14:33:55.294Z,3.90
2023-03-06T14:36:36.795Z,3.90
2023-03-06T14:39:28.344Z,4.00
2023-03-06T14:46:06.731Z,3.90
2023-03-06T14:48:41.562Z,3.90
2023-03-06T14:51:23.629Z,3.80
2023-03-06T14:53:51.090Z,3.90
2023-03-06T14:56:22.651Z,3.90
2023-03-06T14:59:01.366Z,3.90
2023-03-06T15:01:34.665Z,3.90
2023-03-06T15:04:02.312Z,3.90
2023-03-06T15:07:10.543Z,3.80
2023-03-06T15:09:50.236Z,3.80
2023-03-06T15:12:22.782Z,3.80
2023-03-06T15:15:00.165Z,3.70
2023-03-06T15:17:32.251Z,3.70
2023-03-06T15:20:00.129Z,3.60
2023-03-06T15:22:42.916Z,3.60
2023-03-06T15:25:21.399Z,3.60
2023-03-06T15:31:43.265Z,3.50
2023-03-06T15:34:10.086Z,3.50
2023-03-06T15:36:51.474Z,3.50
2023-03-06T15:39:34.443Z,3.50
2023-03-06T15:42:24.916Z,3.50
2023-03-06T15:44:56.138Z,3.60
2023-03-06T15:47:23.063Z,3.50
2023-03-06T15:49:52.377Z,3.50
2023-03-06T15:52:20.124Z,3.50
2023-03-06T15:54:46.836Z,3.60
2023-03-06T15:57:24.194Z,3.60
2023-03-06T15:59:51.135Z,3.60
2023-03-06T16:02:19.405Z,3.60
2023-03-06T16:04:46.354Z,3.50
2023-03-06T16:07:13.324Z,3.50
2023-03-06T16:09:41.629Z,3.50
2023-03-06T16:12:16.361Z,3.60
2023-03-06T16:14:43.855Z,3.60
2023-03-06T16:17:12.036Z,3.50
2023-03-06T16:19:38.690Z,3.50
2023-03-06T16:22:05.402Z,3.50
2023-03-06T16:24:32.295Z,3.60
2023-03-06T16:27:00.453Z,3.50
2023-03-06T16:29:27.839Z,3.50
2023-03-06T16:31:55.181Z,3.50
2023-03-06T16:34:21.948Z,3.50
2023-03-06T16:36:48.878Z,3.50
2023-03-06T16:39:16.688Z,3.50
2023-03-06T16:41:45.630Z,3.50
2023-03-06T16:44:12.807Z,3.50
2023-03-06T16:46:41.694Z,3.50
2023-03-06T16:49:20.871Z,3.50
2023-03-06T16:51:47.898Z,3.50
2023-03-06T16:54:14.560Z,3.50
2023-03-06T16:56:41.525Z,3.50
2023-03-06T16:59:08.589Z,3.50
2023-03-06T17:01:35.396Z,3.40
2023-03-06T17:04:02.506Z,3.40
2023-03-06T17:06:29.326Z,3.40
2023-03-06T17:08:57.902Z,3.30
2023-03-06T17:11:25.048Z,3.30
2023-03-06T17:13:51.851Z,3.30
2023-03-06T17:16:18.684Z,3.20
2023-03-06T17:18:45.778Z,3.20
2023-03-06T17:21:13.278Z,3.10
2023-03-06T17:23:39.939Z,3.10
2023-03-06T17:26:14.422Z,3.10
2023-03-06T17:28:41.343Z,3.10
2023-03-06T17:31:27.647Z,3.00
2023-03-06T17:34:00.377Z,3.10
2023-03-06T17:36:28.126Z,3.00
2023-03-06T17:38:56.593Z,3.00
2023-03-06T17:41:26.467Z,3.00
2023-03-06T17:43:56.452Z,3.00
2023-03-06T17:46:23.170Z,3.00
2023-03-06T17:48:49.879Z,3.00
2023-03-06T17:51:16.721Z,2.90
2023-03-06T17:53:43.484Z,2.90
2023-03-06T17:56:13.392Z,2.90
2023-03-06T17:58:40.468Z,3.00
2023-03-06T18:01:21.971Z,2.90
2023-03-06T18:03:49.744Z,2.90
2023-03-06T18:06:17.255Z,2.80
2023-03-06T18:08:44.436Z,2.80
2023-03-06T18:11:11.313Z,2.80
2023-03-06T18:13:39.673Z,2.70
2023-03-06T18:16:09.206Z,2.70
2023-03-06T18:18:41.818Z,2.70
2023-03-06T18:21:09.869Z,2.70
2023-03-06T18:23:40.559Z,2.60
2023-03-06T18:26:13.124Z,2.60
2023-03-06T18:28:42.340Z,2.50
2023-03-06T18:31:16.957Z,2.50
2023-03-06T18:33:43.927Z,2.40
2023-03-06T18:36:10.923Z,2.50
2023-03-06T18:38:39.555Z,2.40
2023-03-06T18:41:09.780Z,2.40
2023-03-06T18:43:36.935Z,2.40
2023-03-06T18:46:03.861Z,2.40
2023-03-06T18:48:30.638Z,2.40
2023-03-06T18:50:57.433Z,2.50
2023-03-06T18:53:24.172Z,2.50
2023-03-06T18:55:51.419Z,2.50
2023-03-06T18:58:18.737Z,2.50
2023-03-06T19:00:45.602Z,2.60
2023-03-06T19:03:12.374Z,2.60
2023-03-06T19:05:43.224Z,2.60
2023-03-06T19:08:09.920Z,2.60
2023-03-06T19:10:37.397Z,2.60
2023-03-06T19:13:04.731Z,2.70
2023-03-06T19:15:31.425Z,2.70
2023-03-06T19:17:58.274Z,2.70
2023-03-06T19:20:25.490Z,2.70
2023-03-06T19:22:52.716Z,2.70
2023-03-06T19:25:19.502Z,2.70
2023-03-06T19:27:46.209Z,2.80
2023-03-06T19:30:14.102Z,2.70
2023-03-06T19:32:43.779Z,2.80
2023-03-06T19:35:11.002Z,2.80
2023-03-06T19:37:37.754Z,2.80
2023-03-06T19:40:05.522Z,2.80
2023-03-06T19:42:32.350Z,2.80
2023-03-06T19:44:58.995Z,2.70
2023-03-06T19:47:25.757Z,2.70
2023-03-06T19:49:52.418Z,2.80
2023-03-06T19:52:19.178Z,2.80
2023-03-06T19:54:46.957Z,2.70
2023-03-06T19:57:13.961Z,2.70
2023-03-06T19:59:40.662Z,2.70
2023-03-06T20:02:08.882Z,2.70
2023-03-06T20:04:35.615Z,2.70
2023-03-06T20:07:04.701Z,2.70
2023-03-06T20:09:35.016Z,2.70
2023-03-06T20:12:01.658Z,2.70
2023-03-06T20:14:28.372Z,2.70
2023-03-06T20:16:55.061Z,2.80
2023-03-06T20:19:21.906Z,2.80
2023-03-06T20:21:48.700Z,2.80
2023-03-06T20:24:16.785Z,2.80
2023-03-06T20:26:46.695Z,2.80
2023-03-06T20:29:13.545Z,2.80
2023-03-06T20:31:40.695Z,2.80
2023-03-06T20:34:07.530Z,2.80
2023-03-06T20:36:36.656Z,2.80
2023-03-06T20:39:05.006Z,2.80
2023-03-06T20:41:32.469Z,2.80
2023-03-06T20:43:59.912Z,2.80
2023-03-06T20:46:26.848Z,2.80
2023-03-06T20:48:54.259Z,2.80
2023-03-06T20:51:22.667Z,2.80
2023-03-06T20:53:50.207Z,2.80
2023-03-06T20:56:18.212Z,2.80
2023-03-06T20:58:45.146Z,2.80
2023-03-06T21:01:25.132Z,2.80
2023-03-06T21:03:52.868Z,2.80
2023-03-06T21:06:20.019Z,2.80
2023-03-06T21:08:47.096Z,2.80
2023-03-06T21:11:13.776Z,2.80
2023-03-06T21:13:40.519Z,2.80
2023-03-06T21:16:09.721Z,2.80
2023-03-06T21:18:36.470Z,2.80
2023-03-06T21:21:07.456Z,2.80
2023-03-06T21:23:34.231Z,2.80
2023-03-06T21:26:00.926Z,2.80
2023-03-06T21:28:27.920Z,2.80
2023-03-06T21:30:54.602Z,2.80
2023-03-06T21:33:21.417Z,2.80
2023-03-06T21:35:48.272Z,2.80
2023-03-06T21:38:15.362Z,2.70
2023-03-06T21:40:42.651Z,2.70
2023-03-06T21:43:09.953Z,2.60
2023-03-06T21:45:36.665Z,2.60
2023-03-06T21:48:03.598Z,2.60
2023-03-06T21:50:30.316Z,2.60
2023-03-06T21:52:57.337Z,2.50
2023-03-06T21:55:24.002Z,2.50
2023-03-06T21:57:51.531Z,2.50
2023-03-06T22:00:19.373Z,2.50
2023-03-06T22:02:46.552Z,2.50
2023-03-06T22:05:13.430Z,2.50
2023-03-06T22:07:40.155Z,2.50
2023-03-06T22:10:09.215Z,2.50
2023-03-06T22:12:36.261Z,2.40
2023-03-06T22:15:03.070Z,2.40
2023-03-06T22:17:30.436Z,2.50
2023-03-06T22:19:57.206Z,2.40
2023-03-06T22:22:24.221Z,2.40
2023-03-06T22:24:50.883Z,2.40
2023-03-06T22:27:17.578Z,2.40
2023-03-06T22:29:45.571Z,2.40
2023-03-06T22:32:12.604Z,2.40
2023-03-06T22:34:39.519Z,2.40
2023-03-06T22:37:06.228Z,2.40
2023-03-06T22:39:33.040Z,2.40
2023-03-06T22:41:59.706Z,2.40
2023-03-06T22:44:26.374Z,2.30
2023-03-06T22:46:53.476Z,2.40
2023-03-06T22:49:20.150Z,2.40
2023-03-06T22:51:46.846Z,2.40
2023-03-06T22:54:13.557Z,2.40
2023-03-06T22:56:40.263Z,2.40
2023-03-06T22:59:07.172Z,2.40
2023-03-06T23:01:34.470Z,2.40
2023-03-06T23:04:02.765Z,2.40
2023-03-06T23:06:31.422Z,2.40
2023-03-06T23:09:00.910Z,2.40
2023-03-06T23:11:28.362Z,2.40
2023-03-06T23:14:13.844Z,2.40
2023-03-06T23:16:59.342Z,2.40
2023-03-06T23:19:44.547Z,2.50
2023-03-06T23:22:30.049Z,2.50
2023-03-06T23:25:15.704Z,2.50
2023-03-06T23:27:42.439Z,2.50
2023-03-06T23:30:09.572Z,2.50
2023-03-06T23:32:36.368Z,2.50
2023-03-06T23:35:03.136Z,2.50
2023-03-06T23:37:29.926Z,2.50
2023-03-06T23:39:57.311Z,2.60
2023-03-06T23:42:24.200Z,2.50
2023-03-06T23:44:50.895Z,2.60
2023-03-06T23:47:19.870Z,2.60
2023-03-06T23:49:46.562Z,2.50
2023-03-06T23:52:13.245Z,2.60
2023-03-06T23:54:40.036Z,2.50
2023-03-06T23:57:06.802Z,2.60
2023-03-06T23:59:33.635Z,2.60
